Whites Xing, Indiana
Current Conditions -  °F | °C
As of 1:35 AM on Sunday 21 Dec 2014 (Local Time) from KDCY Reporting Station
Haze Haze  
Wind Chill: 25°   Ceiling: Unl
Heat Index: 25°   Visibility: 3mi
Dew Point: 22°   Wind: 0mph
Humidity: 87%   Direction: NA
Pressure: 30.29"   Gusts: NA
Location:  39.0608°N, 87.1852°W
Report Text: KDCY 210635Z AUTO 00000KT 3SM BR CLR M04/M06 A3029 RMK AO2 T10381056
Loading
Personal Weather Stations






























Interactive Weather Map New forecast layout! Learn more

10-Day Weather Forecast

Advertisements
Track Severe Weather on mobile